Cardville, ME (04418)

8:24 PM EDT on July 28, 2016 (GMT -0400)
Out in the front yard | | Change Station

Elev 0 ft 45.08 °N, 68.61 °W | Updated 14 seconds ago

Mostly Cloudy
Mostly Cloudy
68.3 °F
Feels Like 68.3 °F
N
0.0
Wind Variable Wind from ENE
Gusts 1.0 mph

Today
High -- | Low -- °F
--% Chance of Precip.
Yesterday
High -- | Low -- °F
Precip. -- in
Pressure 29.88 in
Visibility 10.0 miles
Clouds Scattered Clouds 5500 ft
Mostly Cloudy 7000 ft
Mostly Cloudy 10000 ft
Dew Point 67 °F
Humidity 97%
Rainfall 0.85 in
Snow Depth Not available.
5:15 AM 8:05 PM
Waning Crescent, 27% visible
METAR KBGR 282353Z 17005KT 10SM SCT055 BKN070 BKN100 24/20 A2989 RMK AO2 SLP116 60000 T02440200 10322 20244 51017
Pressure 29.88 in
Visibility 10.0 miles
Clouds Scattered Clouds 5500 ft
Mostly Cloudy 7000 ft
Mostly Cloudy 10000 ft
Dew Point 67 °F
Humidity 97%
Rainfall 0.85 in
Snow Depth Not available.
5:15 AM 8:05 PM
Waning Crescent, 27% visible
METAR KBGR 282353Z 17005KT 10SM SCT055 BKN070 BKN100 24/20 A2989 RMK AO2 SLP116 60000 T02440200 10322 20244 51017

10-Day Weather Forecast

Almanac

Astronomy

Jul. 28, 2016 Rise Set
Actual Time
Civil Twilight
Nautical Twilight
Astronomical Twilight
Moon
Length of Visible Light
Length of Day
Tomorrow will be .
, % of the Moon is Illuminated

Today's Extremes

State Highs State Lows

Community

WunderPhotos

Upload Photos

1,928,240 photos uploaded!

WunderBlog® & News

Nearby

Air Quality

  Air Quality AQ Index Pollutant
Not available.

Snow Depth

Station Depth Elevation

Earthquake Activity

City Distance Mag. Time & Date
Minimum magnitude displayed is 2.5.

Coastal Water Temperatures

Place Temperature

Stations

Nearby Weather Stations

Station Location Temp. Windchill Dew Point Humidity Wind Precip. Elev Updated Type
                   

Watches & Warnings

There are currently no watches in effect.